Snoqualmie River: North Fork station

back to: Snoqualmie river
North Fork station Summary - (NOAA Hydrograph: SNQW1)
Latest reading:
Fri10/20 02:15 am 5.99 ft 2260 cfs (-168/hr)
Past 24hr max:
Thu10/19 07:45 am 6.8 ft 3183 cfs
Forecasted crests: (published Thu 10/19/17 06:20 pm)
Sun10/22 05:00 am 9.13 ft 6773 cfs

North Fork station Details

Latest Readings

Last 100 Readings:
Fri10/20 02:15 am 5.99 ft 2260 cfs
Fri10/20 02:00 am 6.03 ft 2302 cfs
Fri10/20 01:45 am 6.0 ft 2271 cfs
Fri10/20 01:30 am 6.07 ft 2344 cfs
Fri10/20 01:15 am 6.08 ft 2355 cfs
Fri10/20 01:00 am 6.13 ft 2408 cfs
Fri10/20 12:45 am 6.12 ft 2397 cfs
Fri10/20 12:30 am 6.15 ft 2429 cfs
Fri10/20 12:15 am 6.25 ft 2538 cfs
Fri10/20 12:00 am 6.22 ft 2505 cfs
Thu10/19 11:45 pm 6.27 ft 2560 cfs
Thu10/19 11:30 pm 6.3 ft 2594 cfs
Thu10/19 11:15 pm 6.26 ft 2549 cfs
Thu10/19 11:00 pm 6.27 ft 2560 cfs
Thu10/19 10:45 pm 6.36 ft 2661 cfs
Thu10/19 10:30 pm 6.35 ft 2650 cfs
Thu10/19 10:15 pm 6.35 ft 2650 cfs
Thu10/19 10:00 pm 6.33 ft 2627 cfs
Thu10/19 09:45 pm 6.38 ft 2683 cfs
Thu10/19 09:30 pm 6.34 ft 2639 cfs
Thu10/19 09:15 pm 6.36 ft 2661 cfs
Thu10/19 09:00 pm 6.35 ft 2650 cfs
Thu10/19 08:45 pm 6.34 ft 2639 cfs
Thu10/19 08:30 pm 6.33 ft 2627 cfs
Thu10/19 08:15 pm 6.34 ft 2639 cfs
Thu10/19 08:00 pm 6.31 ft 2605 cfs
Thu10/19 07:45 pm 6.36 ft 2661 cfs
Thu10/19 07:30 pm 6.3 ft 2594 cfs
Thu10/19 07:15 pm 6.28 ft 2572 cfs
Thu10/19 07:00 pm 6.31 ft 2605 cfs
Thu10/19 06:45 pm 6.32 ft 2616 cfs
Thu10/19 06:30 pm 6.31 ft 2605 cfs
Thu10/19 06:15 pm 6.21 ft 2494 cfs
Thu10/19 06:00 pm 6.19 ft 2473 cfs
Thu10/19 05:45 pm 6.14 ft 2419 cfs
Thu10/19 05:30 pm 6.1 ft 2376 cfs
Thu10/19 05:15 pm 6.09 ft 2365 cfs
Thu10/19 05:00 pm 6.08 ft 2355 cfs
Thu10/19 04:45 pm 6.03 ft 2302 cfs
Thu10/19 04:30 pm 6.12 ft 2397 cfs
Thu10/19 04:15 pm 6.0 ft 2271 cfs
Thu10/19 04:00 pm 6.04 ft 2313 cfs
Thu10/19 03:45 pm 6.08 ft 2355 cfs
Thu10/19 03:30 pm 6.06 ft 2334 cfs
Thu10/19 03:15 pm 6.04 ft 2313 cfs
Thu10/19 03:00 pm 6.09 ft 2365 cfs
Thu10/19 02:45 pm 6.11 ft 2386 cfs
Thu10/19 02:30 pm 6.09 ft 2365 cfs
Thu10/19 02:15 pm 6.14 ft 2419 cfs
Thu10/19 02:00 pm 6.16 ft 2440 cfs
Thu10/19 01:45 pm 6.19 ft 2473 cfs
Thu10/19 01:30 pm 6.26 ft 2549 cfs
Thu10/19 01:15 pm 6.24 ft 2527 cfs
Thu10/19 01:00 pm 6.3 ft 2594 cfs
Thu10/19 12:45 pm 6.33 ft 2627 cfs
Thu10/19 12:30 pm 6.42 ft 2729 cfs
Thu10/19 12:15 pm 6.41 ft 2718 cfs
Thu10/19 12:00 pm 6.36 ft 2661 cfs
Thu10/19 11:45 am 6.5 ft 2821 cfs
Thu10/19 11:30 am 6.46 ft 2775 cfs
Thu10/19 11:15 am 6.5 ft 2821 cfs
Thu10/19 11:00 am 6.54 ft 2868 cfs
Thu10/19 10:45 am 6.63 ft 2975 cfs
Thu10/19 10:30 am 6.55 ft 2880 cfs
Thu10/19 10:15 am 6.63 ft 2975 cfs
Thu10/19 10:00 am 6.68 ft 3036 cfs
Thu10/19 09:45 am 6.65 ft 2999 cfs
Thu10/19 09:30 am 6.75 ft 3121 cfs
Thu10/19 09:15 am 6.72 ft 3084 cfs
Thu10/19 09:00 am 6.76 ft 3133 cfs
Thu10/19 08:45 am 6.74 ft 3109 cfs
Thu10/19 08:30 am 6.77 ft 3146 cfs
Thu10/19 08:15 am 6.75 ft 3121 cfs
Thu10/19 08:00 am 6.73 ft 3097 cfs
Thu10/19 07:45 am 6.8 ft 3183 cfs
Thu10/19 07:30 am 6.79 ft 3171 cfs
Thu10/19 07:15 am 6.66 ft 3011 cfs
Thu10/19 07:00 am 6.75 ft 3121 cfs
Thu10/19 06:45 am 6.77 ft 3146 cfs
Thu10/19 06:30 am 6.73 ft 3097 cfs
Thu10/19 06:15 am 6.79 ft 3171 cfs
Thu10/19 06:00 am 6.7 ft 3060 cfs
Thu10/19 05:45 am 6.69 ft 3048 cfs
Thu10/19 05:30 am 6.65 ft 2999 cfs
Thu10/19 05:15 am 6.64 ft 2987 cfs
Thu10/19 05:00 am 6.57 ft 2904 cfs
Thu10/19 04:45 am 6.57 ft 2904 cfs
Thu10/19 04:30 am 6.57 ft 2904 cfs
Thu10/19 04:15 am 6.45 ft 2764 cfs
Thu10/19 04:00 am 6.42 ft 2729 cfs
Thu10/19 03:45 am 6.36 ft 2661 cfs
Thu10/19 03:30 am 6.23 ft 2516 cfs
Thu10/19 03:15 am 6.19 ft 2473 cfs
Thu10/19 03:00 am 6.07 ft 2344 cfs
Thu10/19 02:45 am 5.87 ft 2138 cfs
Thu10/19 02:30 am 5.74 ft 2010 cfs
Thu10/19 02:15 am 5.65 ft 1924 cfs
Thu10/19 02:00 am 5.38 ft 1677 cfs
Thu10/19 01:45 am 5.21 ft 1531 cfs
Thu10/19 01:30 am 4.99 ft 1354 cfs

Latest Forecasts

Currently Forecasted Readings:
Thu10/19 11:00 pm 6.02 ft 2294 cfs
Fri10/20 05:00 am 5.56 ft 1842 cfs
Fri10/20 11:00 am 5.13 ft 1468 cfs
Fri10/20 05:00 pm 5.03 ft 1385 cfs
Fri10/20 11:00 pm 5.0 ft 1363 cfs
Sat10/21 05:00 am 4.7 ft 1144 cfs
Sat10/21 11:00 am 4.42 ft 957 cfs
Sat10/21 05:00 pm 4.9 ft 1288 cfs
Sat10/21 11:00 pm 7.07 ft 3530 cfs
Sun10/22 05:00 am 9.13 ft 6773 cfs
Sun10/22 11:00 am 8.6 ft 5851 cfs
Sun10/22 05:00 pm 7.32 ft 3866 cfs
Sun10/22 11:00 pm 6.51 ft 2830 cfs
Mon10/23 05:00 am 5.7 ft 1970 cfs
Mon10/23 11:00 am 5.25 ft 1560 cfs
Mon10/23 05:00 pm 4.82 ft 1224 cfs
Mon10/23 11:00 pm 4.49 ft 1005 cfs
Tue10/24 05:00 am 4.27 ft 867 cfs
Tue10/24 11:00 am 4.12 ft 780 cfs
Tue10/24 05:00 pm 4.0 ft 713 cfs
Tue10/24 11:00 pm 3.9 ft 658 cfs
Wed10/25 05:00 am 3.81 ft 613 cfs
Wed10/25 11:00 am 3.73 ft 574 cfs
Wed10/25 05:00 pm 3.65 ft 540 cfs
Wed10/25 11:00 pm 3.57 ft 503 cfs
Thu10/26 05:00 am 3.5 ft 473 cfs
Thu10/26 11:00 am 3.44 ft 447 cfs
Thu10/26 05:00 pm 3.38 ft 421 cfs
Thu10/26 11:00 pm 3.32 ft 400 cfs
Fri10/27 05:00 am 3.26 ft 379 cfs
Fri10/27 11:00 am 3.21 ft 360 cfs
Fri10/27 05:00 pm 3.16 ft 343 cfs
Fri10/27 11:00 pm 3.12 ft 329 cfs
Sat10/28 05:00 am 3.09 ft 319 cfs
Sat10/28 11:00 am 3.04 ft 302 cfs
Sat10/28 05:00 pm 3.01 ft 292 cfs
Sat10/28 11:00 pm 3.09 ft 318 cfs
Sun10/29 05:00 am 3.36 ft 417 cfs

Snoqualmie River flood gauge data supplied by the
National Weather Service Northwest River Forecast Center.

Sign up for Floodzilla alerts.